메인 페이지
METAR-TAF:

METAR-TAF

공항 :

앨리스 스프링스 공항

앨리스스프링스, 오스트레일리아

위도: 23-48S, 경도: 133-53E, 고도: 545m

현재 날씨관측

예보는 41분 전, 16:00시(UTC)에 발표되었습니다.
5kt
온도 8°C
습도 23%
기압 1018 hPa
시정 10km 이상

METAR: YBAS 151600Z AUTO 35005KT 9999 // NCD 08/M12 Q1018 RF00.0/000.0 PRESENT WEATHER SENSOR US

시각: 02:11 (16:41 UTC)

예보

예보는 5 시간 33분 전, 11:08시(UTC)에 발표되었습니다.
예보 대상 시간: 15일 12시부터 16일 12시까지 (UTC)
남동6kt
시정 10km 이상
1500m 미만 상공 구름 및 적란운 없음
15일 1400시부터 (UTC)
서북서5kt
시정 10km 이상
1500m 미만 상공 구름 및 적란운 없음
16일 0100시부터 (UTC)
동남동6kt
시정 10km 이상
1500m 미만 상공 구름 및 적란운 없음

TAF: YBAS 151108Z 1512/1612 14006KT CAVOK FM151400 30005KT CAVOK FM160100 12006KT CAVOK

4,000개 이상의 공항 관측 자료 및 예보 (METAR 및 TAF 보고).

지도상에서 검색 가능한 기상관측소가 노란 점과 빨간 점으로 표시되어 있습니다.

기상관측소 명을 보려면 표시 위로 마우스를 이동하세요.

날씨 관측과 예보를 보려면 클릭하세요.

지도 변경 : 확대하려면 엑스 표시가 있는 녹색 버튼, 축소하려면 빼기 표시가 있는 녹색 버튼, 다음 페이지의 지도를 보려면 녹색 화살표를 클릭하세요.


METAR-TAF: